Allen Junction, WV

6:50 PM EDT on March 26, 2015 (GMT -0400)
Raleigh County Memorial | | Change Station
CLOSE
Current Station
Airport
Location: Beckley,
Elevation: 2513 ft
Nearby Weather Stations

Elev 2513 ft 37.79 °N, 81.12 °W | Updated 59 minutes ago

Overcast
Overcast
51 °F
Feels Like 51 °F
N
13
Wind Variable Wind from NNW

Today
High -- | Low -- °F
--% Chance of Precip.
Yesterday
High -- | Low -- °F
Precip. -- in
7:20 AM 7:42 PM
Waxing Crescent, 46% visible
Pressure 29.75 in
Visibility 4.0 miles
Clouds Mostly Cloudy 600 ft
Overcast 900 ft
Dew Point 48 °F
Humidity 89%
Rainfall 0.26 in
Snow Depth Not available.
UV 0 out of 12
Pollen 9.80 out of 12
Air Quality Not available.
Flu Activity Not available.
METAR KBKW 262151Z AUTO 33011KT 4SM -RA BR BKN006 OVC009 11/09 A2978 RMK AO2 LTG DSNT E TSB2055E10 SLP074 P0009 T01060089

More Conditions Fewer Conditions

Pressure 29.75 in
Visibility 4.0 miles
Clouds Mostly Cloudy 600 ft
Overcast 900 ft
Dew Point 48 °F
Humidity 89%
Rainfall 0.26 in
Snow Depth Not available.
UV 0 out of 12
Pollen 9.80 out of 12
Air Quality Not available.
Flu Activity Not available.
METAR KBKW 262151Z AUTO 33011KT 4SM -RA BR BKN006 OVC009 11/09 A2978 RMK AO2 LTG DSNT E TSB2055E10 SLP074 P0009 T01060089

More Conditions Fewer Conditions

10-Day Weather Forecast

Almanac

Astronomy

Mar. 26, 2015 Rise Set
Actual Time
Civil Twilight
Nautical Twilight
Astronomical Twilight
Moon
Length of Visible Light
Length of Day
Tomorrow will be .
, % of the Moon is Illuminated

Today's Extremes

State Highs State Lows

Community

WunderPhotos

Upload Photos

1,808,629 photos uploaded!

WunderBlogs® & News

Nearby

Air Quality

  Air Quality AQ Index Pollutant
Not available.

Snow Depth

Station Depth Elevation

Earthquake Activity

City Distance Mag. Time & Date
Minimum magnitude displayed is 2.5.

Coastal Water Temperatures

Place Temperature

Stations

Nearby Weather Stations

Station Location Temp. Windchill Dew Point Humidity Wind Precip. Elev Updated Type